Time;durP1;ratioP1;P1;durP2;ratioP2;P2;SDS_P1;SDS_P2;PMS_P1;PMS_P2;Temp;Humidity;BMP_temperature;BMP_pressure;BME280_temperature;BME280_humidity;BME280_pressure;Samples;Min_cycle;Max_cycle;Signal;HPM_P1;HPM_P2
2022/08/21 00:01:13;;;;;;;7.07;4.20;;;18.20;99.90;;;;;;5052312;28;20462;-76
2022/08/21 00:03:41;;;;;;;7.40;4.27;;;18.20;99.90;;;;;;5046565;28;20494;-76
2022/08/21 00:06:09;;;;;;;5.20;4.30;;;18.20;99.90;;;;;;5048444;28;20949;-77
2022/08/21 00:08:53;;;;;;;6.20;3.90;;;18.20;99.90;;;;;;5048335;28;20450;-75
2022/08/21 00:11:20;;;;;;;8.80;4.10;;;18.10;99.90;;;;;;5050176;28;20454;-75
2022/08/21 00:13:49;;;;;;;8.67;5.33;;;18.00;99.90;;;;;;5048063;28;20478;-75
2022/08/21 00:16:16;;;;;;;5.30;4.23;;;18.00;99.90;;;;;;5052146;28;20466;-75
2022/08/21 00:18:49;;;;;;;4.00;3.07;;;18.00;99.90;;;;;;5057055;28;20464;-76
2022/08/21 00:21:17;;;;;;;7.50;3.53;;;17.90;99.90;;;;;;5056979;28;20862;-76
2022/08/21 00:23:45;;;;;;;9.57;5.30;;;18.00;99.90;;;;;;5053135;28;20529;-75
2022/08/21 00:26:14;;;;;;;7.13;3.70;;;18.00;99.90;;;;;;5052683;28;20450;-74
2022/08/21 00:28:41;;;;;;;6.53;4.20;;;18.00;99.90;;;;;;5049561;28;20549;-74
2022/08/21 00:31:08;;;;;;;8.30;3.43;;;17.90;99.90;;;;;;5053579;28;20512;-75
2022/08/21 00:33:35;;;;;;;10.03;4.50;;;17.90;99.90;;;;;;5048289;28;20553;-75
2022/08/21 00:36:02;;;;;;;12.33;5.13;;;17.80;99.90;;;;;;5053757;28;20528;-77
2022/08/21 00:38:29;;;;;;;7.40;3.70;;;17.80;99.90;;;;;;5053688;28;20522;-75
2022/08/21 00:41:00;;;;;;;8.30;4.67;;;17.80;99.90;;;;;;5050380;28;20541;-75
2022/08/21 00:43:31;;;;;;;8.57;4.23;;;17.70;99.90;;;;;;5053623;28;20519;-76
2022/08/21 00:45:59;;;;;;;8.47;4.60;;;17.60;99.90;;;;;;5045413;28;20870;-75
2022/08/21 00:48:28;;;;;;;6.50;3.90;;;17.60;99.90;;;;;;5050658;28;20485;-75
2022/08/21 00:50:58;;;;;;;5.80;4.00;;;17.60;99.90;;;;;;5046678;28;20537;-75
2022/08/21 00:53:27;;;;;;;7.60;4.20;;;17.60;99.90;;;;;;5051094;28;20571;-77
2022/08/21 00:55:56;;;;;;;5.07;3.50;;;17.70;99.90;;;;;;5052839;28;20454;-75
2022/08/21 00:58:26;;;;;;;6.77;4.20;;;17.60;99.90;;;;;;5054260;28;20460;-77
2022/08/21 01:00:54;;;;;;;6.43;3.60;;;17.60;99.90;;;;;;5052612;28;20545;-75
2022/08/21 01:03:24;;;;;;;8.33;3.90;;;17.60;99.90;;;;;;5053322;28;20557;-76
2022/08/21 01:05:52;;;;;;;5.47;3.10;;;17.60;99.90;;;;;;5045852;28;20454;-76
2022/08/21 01:08:20;;;;;;;4.47;2.80;;;17.60;99.90;;;;;;5045303;28;20521;-75
2022/08/21 01:10:48;;;;;;;8.77;2.77;;;17.60;99.90;;;;;;5055026;28;20462;-74
2022/08/21 01:13:18;;;;;;;6.47;3.60;;;17.60;99.90;;;;;;5051088;28;20475;-75
2022/08/21 01:15:48;;;;;;;4.87;2.70;;;17.60;99.90;;;;;;5048033;28;20454;-76
2022/08/21 01:18:18;;;;;;;9.87;3.80;;;17.60;99.90;;;;;;5044561;28;20504;-74
2022/08/21 01:20:56;;;;;;;5.80;4.03;;;17.50;99.90;;;;;;5039358;28;20477;-74
2022/08/21 01:23:23;;;;;;;11.20;3.70;;;17.50;99.90;;;;;;5035307;28;20519;-76
2022/08/21 01:25:50;;;;;;;5.30;3.30;;;17.50;99.90;;;;;;5046500;28;20449;-77
2022/08/21 01:28:17;;;;;;;4.67;2.60;;;17.50;99.90;;;;;;5043438;28;20497;-74
2022/08/21 01:30:45;;;;;;;5.80;3.13;;;17.50;99.90;;;;;;5051543;28;20524;-77
2022/08/21 01:33:12;;;;;;;5.20;3.20;;;17.40;99.90;;;;;;5055771;28;20476;-78
2022/08/21 01:35:39;;;;;;;6.30;3.30;;;17.40;99.90;;;;;;5063781;28;20434;-75
2022/08/21 01:38:08;;;;;;;7.07;4.00;;;17.30;99.90;;;;;;5063084;28;20445;-77
2022/08/21 01:40:35;;;;;;;7.47;3.60;;;17.40;99.90;;;;;;5055702;28;20545;-74
2022/08/21 01:43:02;;;;;;;4.67;3.07;;;17.30;99.90;;;;;;5065514;28;20475;-75
2022/08/21 01:45:31;;;;;;;5.57;3.70;;;17.30;99.90;;;;;;5059916;28;20458;-76
2022/08/21 01:47:58;;;;;;;7.93;3.70;;;17.30;99.90;;;;;;5060361;28;20489;-74
2022/08/21 01:50:26;;;;;;;6.40;3.57;;;17.20;99.90;;;;;;5058060;28;20548;-76
2022/08/21 01:52:53;;;;;;;17.37;5.50;;;17.20;99.90;;;;;;5049622;28;20529;-76
2022/08/21 01:55:22;;;;;;;5.50;3.20;;;17.20;99.90;;;;;;5050330;28;20469;-75
2022/08/21 01:57:50;;;;;;;7.67;4.30;;;17.00;99.90;;;;;;5048902;28;20846;-75
2022/08/21 02:00:19;;;;;;;4.53;3.35;;;17.10;99.90;;;;;;5052008;28;20981;-75
2022/08/21 02:02:46;;;;;;;4.57;3.10;;;16.90;99.90;;;;;;5043059;28;20241;-75
2022/08/21 02:05:14;;;;;;;6.30;3.23;;;16.90;99.90;;;;;;5048138;28;20511;-76
2022/08/21 02:07:43;;;;;;;4.53;3.20;;;16.90;99.90;;;;;;5049745;28;20476;-76
2022/08/21 02:10:13;;;;;;;5.72;3.95;;;16.90;99.90;;;;;;5053151;28;20506;-76
2022/08/21 02:12:41;;;;;;;4.83;3.27;;;16.90;99.90;;;;;;5053823;28;20238;-76
2022/08/21 02:15:10;;;;;;;6.73;3.00;;;16.90;99.90;;;;;;5055243;28;20456;-75
2022/08/21 02:17:43;;;;;;;6.67;3.67;;;16.90;99.90;;;;;;5064627;28;20467;-74
2022/08/21 02:20:12;;;;;;;11.70;4.07;;;16.90;99.90;;;;;;5064788;28;20496;-76
2022/08/21 02:22:39;;;;;;;9.33;4.33;;;16.90;99.90;;;;;;5067894;28;20456;-74
2022/08/21 02:25:06;;;;;;;5.47;3.03;;;16.80;99.90;;;;;;5070503;28;20457;-75
2022/08/21 02:27:41;;;;;;;6.50;3.17;;;16.90;99.90;;;;;;5062299;28;20526;-73
2022/08/21 02:30:10;;;;;;;11.75;5.60;;;16.90;99.90;;;;;;5057905;28;20444;-76
2022/08/21 02:32:37;;;;;;;4.87;2.80;;;16.80;99.90;;;;;;5061384;28;21442;-75
2022/08/21 02:35:04;;;;;;;5.30;3.30;;;16.80;99.90;;;;;;5059439;28;20444;-75
2022/08/21 02:37:32;;;;;;;7.20;4.10;;;16.80;99.90;;;;;;5051180;28;20205;-76
2022/08/21 02:40:00;;;;;;;4.87;3.10;;;16.70;99.90;;;;;;5051299;28;20452;-76
2022/08/21 02:42:27;;;;;;;5.20;3.22;;;16.80;99.90;;;;;;5046102;28;20458;-75
2022/08/21 02:44:55;;;;;;;6.95;4.10;;;16.70;99.90;;;;;;5057596;28;20271;-75
2022/08/21 02:47:23;;;;;;;5.75;4.20;;;16.60;99.90;;;;;;5057611;28;20224;-74
2022/08/21 02:49:50;;;;;;;10.13;4.10;;;16.60;99.90;;;;;;5058954;28;20568;-75
2022/08/21 02:52:17;;;;;;;11.50;7.00;;;16.60;99.90;;;;;;5059037;28;20296;-74
2022/08/21 02:54:44;;;;;;;11.80;4.30;;;16.50;99.90;;;;;;5046430;28;20229;-75
2022/08/21 02:57:25;;;;;;;6.22;3.80;;;16.50;99.90;;;;;;5059398;28;20496;-74
2022/08/21 02:59:52;;;;;;;8.52;3.40;;;16.50;99.90;;;;;;5056914;28;20202;-75
2022/08/21 03:02:21;;;;;;;7.97;3.67;;;16.50;99.90;;;;;;5057454;28;20209;-76
2022/08/21 03:04:55;;;;;;;6.70;2.80;;;16.40;99.90;;;;;;5053889;28;20276;-75
2022/08/21 03:07:22;;;;;;;5.68;3.25;;;16.40;99.90;;;;;;5061019;28;20534;-75
2022/08/21 03:09:53;;;;;;;5.80;4.27;;;16.50;99.90;;;;;;5063478;28;20209;-75
2022/08/21 03:12:20;;;;;;;6.43;3.20;;;16.60;99.90;;;;;;5060231;28;20440;-75
2022/08/21 03:14:47;;;;;;;5.90;3.53;;;16.70;99.90;;;;;;5069084;28;20544;-75
2022/08/21 03:17:14;;;;;;;6.90;3.30;;;16.80;99.90;;;;;;5056302;28;20520;-74
2022/08/21 03:19:43;;;;;;;5.93;3.60;;;16.80;99.90;;;;;;5058001;28;20449;-74
2022/08/21 03:22:10;;;;;;;7.53;3.60;;;16.90;99.90;;;;;;5051172;28;21010;-75
2022/08/21 03:24:37;;;;;;;6.10;2.40;;;16.90;99.90;;;;;;5055460;28;21105;-74
2022/08/21 03:27:04;;;;;;;10.13;3.20;;;16.90;99.90;;;;;;5055021;28;20470;-76
2022/08/21 03:29:31;;;;;;;8.90;4.33;;;17.00;99.90;;;;;;5055564;28;20560;-75
2022/08/21 03:31:58;;;;;;;5.38;2.50;;;16.90;99.90;;;;;;5056664;28;20490;-77
2022/08/21 03:34:25;;;;;;;5.40;3.50;;;16.90;99.90;;;;;;5069930;28;20218;-74
2022/08/21 03:37:01;;;;;;;5.10;3.20;;;16.90;99.90;;;;;;5066823;28;20702;-76
2022/08/21 03:39:29;;;;;;;5.03;2.38;;;16.90;99.90;;;;;;5070945;28;20445;-76
2022/08/21 03:41:56;;;;;;;10.15;3.47;;;16.90;99.90;;;;;;5062674;28;20214;-74
2022/08/21 03:44:23;;;;;;;4.73;3.50;;;16.90;99.90;;;;;;5059324;28;20238;-76
2022/08/21 03:46:50;;;;;;;6.22;3.60;;;16.90;99.90;;;;;;5061396;28;20452;-76
2022/08/21 03:49:16;;;;;;;4.43;2.83;;;16.90;99.90;;;;;;5053882;28;20326;-75
2022/08/21 03:51:45;;;;;;;5.03;3.00;;;16.80;99.90;;;;;;5051881;28;20528;-75
2022/08/21 03:54:14;;;;;;;7.47;3.10;;;16.80;99.90;;;;;;5051439;28;20555;-74
2022/08/21 03:56:43;;;;;;;5.43;3.80;;;16.80;99.90;;;;;;5052477;28;20449;-74
2022/08/21 03:59:10;;;;;;;7.67;2.70;;;16.80;99.90;;;;;;5052434;28;20467;-75
2022/08/21 04:01:37;;;;;;;6.23;3.80;;;16.90;99.90;;;;;;5051152;28;20527;-76
2022/08/21 04:04:05;;;;;;;5.60;2.67;;;16.90;99.90;;;;;;5052659;28;20473;-76
2022/08/21 04:06:32;;;;;;;7.53;2.77;;;17.00;99.90;;;;;;5049382;28;20437;-75
2022/08/21 04:08:59;;;;;;;9.07;4.17;;;17.00;99.90;;;;;;5050896;28;20476;-74
2022/08/21 04:11:27;;;;;;;6.93;2.90;;;17.00;99.90;;;;;;5053602;28;20478;-74
2022/08/21 04:13:54;;;;;;;8.00;3.30;;;17.00;99.90;;;;;;5051483;28;20509;-75
2022/08/21 04:16:21;;;;;;;9.07;3.30;;;17.00;99.90;;;;;;5054705;28;20464;-74
2022/08/21 04:18:48;;;;;;;5.80;3.00;;;17.00;99.90;;;;;;5054911;28;20511;-76
2022/08/21 04:21:15;;;;;;;4.93;3.53;;;17.00;99.90;;;;;;5053897;28;20481;-75
2022/08/21 04:23:42;;;;;;;4.82;3.10;;;17.10;99.90;;;;;;5053850;28;20504;-75
2022/08/21 04:26:09;;;;;;;7.97;2.83;;;17.10;99.90;;;;;;5054512;28;20289;-74
2022/08/21 04:28:38;;;;;;;7.63;3.27;;;17.10;99.90;;;;;;5053332;28;21002;-74
2022/08/21 04:31:05;;;;;;;7.43;3.63;;;17.10;99.90;;;;;;5053521;28;20460;-75
2022/08/21 04:33:32;;;;;;;13.33;3.60;;;17.10;99.90;;;;;;5052885;28;20473;-75
2022/08/21 04:35:59;;;;;;;8.00;3.43;;;17.10;99.90;;;;;;5054413;28;20453;-76
2022/08/21 04:38:32;;;;;;;5.73;3.17;;;17.10;99.90;;;;;;5050474;28;20486;-76
2022/08/21 04:40:59;;;;;;;6.57;3.97;;;17.10;99.90;;;;;;5055035;28;20959;-74
2022/08/21 04:43:28;;;;;;;5.07;3.30;;;17.10;99.90;;;;;;5051765;28;20540;-74
2022/08/21 04:45:56;;;;;;;5.95;2.53;;;17.00;99.90;;;;;;5050085;28;20480;-74
2022/08/21 04:48:24;;;;;;;4.10;2.70;;;17.00;99.90;;;;;;5044580;28;20254;-74
2022/08/21 04:50:56;;;;;;;4.43;2.40;;;17.00;99.90;;;;;;5046821;28;20456;-75
2022/08/21 04:53:27;;;;;;;6.80;2.50;;;17.10;99.90;;;;;;5051671;28;20815;-75
2022/08/21 04:55:55;;;;;;;5.97;3.80;;;17.10;99.90;;;;;;5052049;28;20544;-73
2022/08/21 04:58:26;;;;;;;8.80;3.77;;;17.10;99.90;;;;;;5044560;28;20445;-74
2022/08/21 05:00:57;;;;;;;4.30;3.03;;;17.20;99.90;;;;;;5051014;28;20544;-74
2022/08/21 05:03:25;;;;;;;7.82;2.80;;;17.20;99.90;;;;;;5044076;28;20241;-77
2022/08/21 05:05:52;;;;;;;5.17;3.10;;;17.20;99.90;;;;;;5046444;28;20675;-75
2022/08/21 05:08:23;;;;;;;6.50;3.33;;;17.20;99.90;;;;;;5047418;28;20478;-75
2022/08/21 05:10:50;;;;;;;4.97;3.08;;;17.30;99.90;;;;;;5046657;28;20460;-74
2022/08/21 05:13:18;;;;;;;5.65;2.97;;;17.30;99.90;;;;;;5049955;28;20285;-74
2022/08/21 05:15:46;;;;;;;7.00;3.43;;;17.30;99.90;;;;;;5056953;28;20205;-74
2022/08/21 05:18:14;;;;;;;5.07;3.00;;;17.40;99.90;;;;;;5062689;28;20441;-73
2022/08/21 05:20:44;;;;;;;9.83;3.53;;;17.80;99.90;;;;;;5050348;28;20506;-74
2022/08/21 05:23:13;;;;;;;8.53;3.90;;;18.40;99.90;;;;;;5071494;28;20492;-74
2022/08/21 05:25:40;;;;;;;7.37;3.77;;;18.90;99.90;;;;;;5056440;28;20925;-75
2022/08/21 05:28:07;;;;;;;6.37;3.50;;;19.40;99.90;;;;;;5061112;28;20505;-75
2022/08/21 05:30:34;;;;;;;9.97;4.03;;;20.00;99.90;;;;;;5063602;28;20510;-75
2022/08/21 05:33:03;;;;;;;7.03;3.67;;;20.60;99.90;;;;;;5054084;28;20493;-76
2022/08/21 05:35:32;;;;;;;7.43;3.17;;;20.90;99.90;;;;;;5051295;28;20457;-75
2022/08/21 05:38:00;;;;;;;3.23;2.30;;;21.20;99.90;;;;;;5058580;28;20440;-77
2022/08/21 05:40:28;;;;;;;8.67;2.90;;;21.70;99.90;;;;;;5050228;28;20935;-77
2022/08/21 05:42:56;;;;;;;9.70;3.60;;;22.30;99.90;;;;;;5044918;28;21014;-75
2022/08/21 05:45:24;;;;;;;7.63;3.67;;;22.50;98.90;;;;;;5053400;28;20493;-75
2022/08/21 05:47:51;;;;;;;5.07;3.57;;;22.90;97.70;;;;;;5054350;28;20869;-74
2022/08/21 05:50:19;;;;;;;7.73;3.70;;;23.10;96.80;;;;;;5046585;28;20505;-74
2022/08/21 05:52:47;;;;;;;8.40;4.10;;;23.70;96.50;;;;;;5057764;28;20458;-77
2022/08/21 05:55:14;;;;;;;6.90;4.07;;;24.20;94.70;;;;;;5043156;28;20446;-76
2022/08/21 05:57:42;;;;;;;5.47;3.30;;;24.70;94.10;;;;;;5051712;28;20525;-74
2022/08/21 06:00:12;;;;;;;6.50;3.43;;;25.20;92.90;;;;;;5050382;28;20478;-75
2022/08/21 06:02:39;;;;;;;11.43;3.97;;;25.60;91.90;;;;;;5045299;28;20445;-74
2022/08/21 06:05:06;;;;;;;5.63;3.70;;;25.00;91.30;;;;;;5048895;28;20447;-75
2022/08/21 06:07:34;;;;;;;7.77;4.90;;;25.00;91.90;;;;;;5051481;28;20449;-75
2022/08/21 06:10:03;;;;;;;8.77;4.00;;;25.30;91.20;;;;;;5048075;28;20493;-76
2022/08/21 06:12:30;;;;;;;5.20;3.90;;;25.80;91.00;;;;;;5045114;28;20440;-76
2022/08/21 06:14:57;;;;;;;8.43;4.40;;;26.10;90.30;;;;;;5044265;28;20525;-74
2022/08/21 06:17:24;;;;;;;6.47;3.33;;;26.20;89.30;;;;;;5044846;28;21029;-75
2022/08/21 06:19:53;;;;;;;7.53;4.20;;;26.70;89.10;;;;;;5044270;28;20478;-74
2022/08/21 06:22:21;;;;;;;5.40;4.03;;;27.30;86.80;;;;;;5046170;28;20817;-76
2022/08/21 06:24:48;;;;;;;5.20;4.50;;;27.50;85.90;;;;;;5045969;28;20581;-74
2022/08/21 06:27:17;;;;;;;9.37;4.50;;;27.00;84.70;;;;;;5051662;28;20478;-74
2022/08/21 06:29:45;;;;;;;8.10;4.13;;;27.00;85.50;;;;;;5051610;28;20485;-74
2022/08/21 06:32:13;;;;;;;5.13;3.57;;;27.40;85.80;;;;;;5050104;28;20450;-74
2022/08/21 06:34:41;;;;;;;5.70;4.00;;;27.90;83.70;;;;;;5051638;28;20525;-74
2022/08/21 06:37:09;;;;;;;9.90;4.83;;;27.80;83.90;;;;;;5052586;28;20450;-74
2022/08/21 06:39:37;;;;;;;8.30;4.40;;;28.30;83.10;;;;;;5044182;28;20984;-74
2022/08/21 06:42:04;;;;;;;6.63;4.60;;;28.60;81.30;;;;;;5058458;28;20480;-74
2022/08/21 06:44:33;;;;;;;7.37;4.90;;;28.50;81.50;;;;;;5051328;28;20466;-73
2022/08/21 06:47:00;;;;;;;8.57;4.87;;;28.20;81.60;;;;;;5049049;28;20875;-76
2022/08/21 06:49:27;;;;;;;6.93;4.23;;;28.60;82.10;;;;;;5048712;28;20474;-74
2022/08/21 06:51:54;;;;;;;8.10;5.07;;;28.80;80.90;;;;;;5045721;28;20466;-74
2022/08/21 06:54:21;;;;;;;9.80;4.67;;;28.80;80.50;;;;;;5045818;28;20466;-73
2022/08/21 06:56:48;;;;;;;10.67;5.10;;;29.00;80.40;;;;;;5053509;28;20885;-73
2022/08/21 06:59:15;;;;;;;9.00;4.67;;;28.80;80.40;;;;;;5050207;28;20956;-74
2022/08/21 07:01:44;;;;;;;8.30;4.83;;;28.40;81.10;;;;;;5052389;28;20486;-73
2022/08/21 07:04:11;;;;;;;9.57;4.83;;;29.10;80.70;;;;;;5051647;28;20564;-74
2022/08/21 07:06:38;;;;;;;8.23;4.50;;;29.40;80.00;;;;;;5057369;28;20431;-74
2022/08/21 07:09:05;;;;;;;8.80;4.47;;;30.20;78.40;;;;;;5056430;28;20828;-73
2022/08/21 07:11:33;;;;;;;12.87;4.80;;;29.70;77.50;;;;;;5051530;28;20438;-73
2022/08/21 07:14:00;;;;;;;7.37;4.17;;;29.60;78.50;;;;;;5061555;28;20553;-73
2022/08/21 07:16:26;;;;;;;9.60;4.37;;;30.40;77.50;;;;;;5055481;28;20442;-73
2022/08/21 07:18:55;;;;;;;8.67;3.93;;;29.80;78.20;;;;;;5051413;28;20479;-73
2022/08/21 07:21:22;;;;;;;9.33;4.60;;;29.90;77.90;;;;;;5051393;28;20450;-74
2022/08/21 07:23:52;;;;;;;10.73;5.33;;;30.50;77.30;;;;;;5056505;28;20547;-73
2022/08/21 07:26:21;;;;;;;7.30;3.80;;;31.10;75.60;;;;;;5066364;28;20440;-74
2022/08/21 07:28:48;;;;;;;7.47;4.10;;;31.50;74.60;;;;;;5059418;28;20565;-73
2022/08/21 07:31:19;;;;;;;5.50;3.33;;;31.60;73.70;;;;;;5052322;28;20537;-74
2022/08/21 07:33:46;;;;;;;8.20;3.60;;;31.70;73.50;;;;;;5045245;28;20960;-73
2022/08/21 07:36:15;;;;;;;5.67;3.63;;;31.80;73.50;;;;;;5055599;28;20968;-74
2022/08/21 07:38:42;;;;;;;8.83;5.13;;;31.70;73.20;;;;;;5044881;28;20453;-74
2022/08/21 07:41:16;;;;;;;13.13;3.73;;;32.00;72.50;;;;;;5053856;28;20442;-73
2022/08/21 07:43:43;;;;;;;7.00;3.20;;;32.20;72.10;;;;;;5029219;28;20498;-74
2022/08/21 07:46:12;;;;;;;6.90;3.87;;;32.40;71.70;;;;;;5053037;28;20477;-74
2022/08/21 07:48:39;;;;;;;7.33;3.43;;;32.10;70.90;;;;;;5050951;28;20442;-73
2022/08/21 07:51:09;;;;;;;8.40;4.00;;;32.10;71.90;;;;;;5048901;28;20550;-72
2022/08/21 07:53:38;;;;;;;6.70;3.57;;;32.40;71.40;;;;;;5055737;28;20546;-73
2022/08/21 07:56:08;;;;;;;6.57;3.50;;;32.20;71.20;;;;;;5053791;28;20450;-73
2022/08/21 07:58:35;;;;;;;6.63;3.20;;;32.60;70.10;;;;;;5053968;28;20451;-73
2022/08/21 08:01:02;;;;;;;9.37;3.13;;;32.80;70.10;;;;;;5050871;28;20558;-73
2022/08/21 08:03:29;;;;;;;12.83;3.80;;;32.90;69.30;;;;;;5054134;28;20484;-72
2022/08/21 08:05:57;;;;;;;5.07;3.30;;;33.20;68.70;;;;;;5048036;28;20533;-72
2022/08/21 08:08:24;;;;;;;7.83;2.43;;;32.60;68.40;;;;;;5047419;28;20461;-73
2022/08/21 08:10:53;;;;;;;7.07;2.90;;;32.60;69.30;;;;;;5045496;28;20991;-73
2022/08/21 08:13:20;;;;;;;8.30;3.23;;;33.00;68.60;;;;;;5050914;28;20474;-74
2022/08/21 08:15:47;;;;;;;6.03;2.77;;;33.60;66.90;;;;;;5052296;28;20528;-74
2022/08/21 08:18:14;;;;;;;4.60;2.83;;;33.50;66.60;;;;;;5058336;28;20473;-73
2022/08/21 08:20:41;;;;;;;8.30;3.10;;;34.10;65.30;;;;;;5054329;28;20968;-72
2022/08/21 08:23:11;;;;;;;6.87;3.20;;;33.90;63.80;;;;;;5054767;28;20517;-72
2022/08/21 08:25:37;;;;;;;8.27;3.13;;;34.10;63.70;;;;;;5066200;28;20940;-71
2022/08/21 08:28:08;;;;;;;5.30;2.50;;;33.90;63.40;;;;;;5060598;28;20478;-73
2022/08/21 08:30:35;;;;;;;3.60;2.70;;;34.30;64.30;;;;;;5053117;28;20583;-73
2022/08/21 08:33:02;;;;;;;6.70;2.17;;;34.60;62.80;;;;;;5043911;28;20471;-72
2022/08/21 08:35:29;;;;;;;6.17;2.27;;;35.10;61.40;;;;;;5043924;28;20473;-72
2022/08/21 08:37:59;;;;;;;4.50;2.50;;;35.10;59.60;;;;;;5048155;28;20446;-73
2022/08/21 08:40:36;;;;;;;9.50;2.50;;;35.10;58.90;;;;;;5054900;28;20534;-73
2022/08/21 08:43:05;;;;;;;6.63;2.43;;;34.90;58.50;;;;;;5053231;28;21027;-72
2022/08/21 08:45:38;;;;;;;5.43;2.00;;;34.70;57.80;;;;;;5053858;28;20453;-71
2022/08/21 08:48:10;;;;;;;4.30;1.90;;;34.70;58.10;;;;;;5051240;28;20466;-73
2022/08/21 08:50:44;;;;;;;9.27;4.43;;;34.70;57.90;;;;;;5052303;28;20489;-73
2022/08/21 08:53:15;;;;;;;6.30;3.03;;;34.80;58.10;;;;;;5048843;28;20571;-72
2022/08/21 08:55:46;;;;;;;7.73;2.40;;;35.00;57.40;;;;;;5050283;28;20442;-72
2022/08/21 08:58:19;;;;;;;4.77;2.30;;;35.10;56.50;;;;;;5051648;28;20536;-72
2022/08/21 09:00:50;;;;;;;8.30;3.13;;;35.00;56.00;;;;;;5035316;28;20450;-72
2022/08/21 09:03:21;;;;;;;6.00;2.97;;;34.70;56.70;;;;;;5054636;28;20476;-74
2022/08/21 09:05:54;;;;;;;11.63;2.80;;;34.70;57.00;;;;;;5059089;28;20930;-74
2022/08/21 09:08:40;;;;;;;6.63;2.73;;;34.30;57.30;;;;;;5060789;28;20790;-72
2022/08/21 09:11:13;;;;;;;5.70;2.20;;;33.00;58.60;;;;;;5059205;28;20565;-73
2022/08/21 09:13:51;;;;;;;8.10;2.97;;;32.60;60.00;;;;;;5045944;28;20591;-74
2022/08/21 09:16:32;;;;;;;7.20;3.43;;;30.90;62.60;;;;;;5050753;28;20536;-72
2022/08/21 09:19:25;;;;;;;12.20;3.40;;;29.80;65.70;;;;;;5030695;28;20507;-74
2022/08/21 09:21:59;;;;;;;6.43;3.83;;;29.60;68.30;;;;;;5053390;28;20483;-74
2022/08/21 09:24:33;;;;;;;7.40;2.77;;;30.10;67.50;;;;;;5057595;28;20984;-75
2022/08/21 09:27:06;;;;;;;4.30;2.33;;;31.00;65.90;;;;;;5049455;28;20450;-73
2022/08/21 09:29:37;;;;;;;8.80;2.67;;;30.70;64.80;;;;;;5035509;28;20478;-73
2022/08/21 09:32:15;;;;;;;8.30;2.70;;;31.10;65.80;;;;;;5047245;28;20967;-74
2022/08/21 09:34:42;;;;;;;7.23;2.57;;;31.90;64.40;;;;;;5053311;28;20469;-72
2022/08/21 09:37:18;;;;;;;8.17;2.77;;;31.40;63.90;;;;;;5053551;28;20517;-74
2022/08/21 09:39:45;;;;;;;4.73;3.07;;;30.10;66.30;;;;;;5040470;28;20485;-74
2022/08/21 09:42:22;;;;;;;4.83;2.90;;;29.50;68.00;;;;;;5053966;28;20469;-73
2022/08/21 09:44:49;;;;;;;5.10;2.60;;;30.00;68.50;;;;;;5040887;28;20525;-76
2022/08/21 09:47:20;;;;;;;8.10;3.50;;;29.70;68.40;;;;;;5048588;28;20521;-73
2022/08/21 09:49:47;;;;;;;10.37;2.63;;;29.30;67.40;;;;;;5042488;28;20483;-73
2022/08/21 09:52:21;;;;;;;6.40;2.53;;;29.50;68.50;;;;;;5048236;28;20571;-74
2022/08/21 09:54:53;;;;;;;9.07;2.87;;;29.70;67.90;;;;;;5050381;28;20470;-73
2022/08/21 09:57:39;;;;;;;7.37;2.40;;;30.30;66.40;;;;;;5043452;28;20431;-73
2022/08/21 10:00:16;;;;;;;8.10;2.87;;;30.30;66.40;;;;;;5051117;28;20458;-73
2022/08/21 10:02:44;;;;;;;9.47;2.80;;;30.30;66.20;;;;;;5043242;28;20442;-73
2022/08/21 10:05:18;;;;;;;8.67;3.70;;;30.50;66.20;;;;;;5046384;28;20541;-72
2022/08/21 10:07:45;;;;;;;6.80;2.87;;;30.00;66.70;;;;;;5043758;28;20537;-73
2022/08/21 10:10:20;;;;;;;6.63;2.43;;;29.50;68.90;;;;;;5046329;28;20505;-72
2022/08/21 10:12:58;;;;;;;5.97;2.83;;;28.70;71.10;;;;;;5044475;28;20446;-73
2022/08/21 10:15:36;;;;;;;10.17;3.10;;;28.40;72.40;;;;;;5030891;28;20449;-73
2022/08/21 10:18:13;;;;;;;4.77;2.53;;;28.10;73.00;;;;;;5032903;28;20530;-73
2022/08/21 10:20:45;;;;;;;8.27;2.93;;;27.70;74.30;;;;;;5050708;28;20839;-73
2022/08/21 10:23:30;;;;;;;7.97;3.10;;;27.50;75.20;;;;;;5048269;28;20558;-75
2022/08/21 10:26:03;;;;;;;4.87;3.53;;;27.20;75.70;;;;;;5051406;28;20478;-73
2022/08/21 10:28:38;;;;;;;3.43;2.30;;;26.20;77.60;;;;;;5046713;28;20517;-73
2022/08/21 10:31:15;;;;;;;7.83;2.63;;;26.00;78.10;;;;;;5029311;28;20515;-72
2022/08/21 10:33:52;;;;;;;8.70;3.50;;;26.60;76.20;;;;;;5035582;28;20536;-73
2022/08/21 10:36:24;;;;;;;5.80;2.83;;;26.70;75.40;;;;;;5029327;28;20466;-73
2022/08/21 10:38:59;;;;;;;6.60;2.50;;;26.50;76.60;;;;;;5054198;28;20457;-72
2022/08/21 10:41:49;;;;;;;6.30;3.00;;;26.70;77.50;;;;;;5047622;28;20437;-74
2022/08/21 10:44:28;;;;;;;5.50;2.50;;;27.20;77.40;;;;;;5046804;28;20462;-72
2022/08/21 10:47:03;;;;;;;7.70;2.93;;;27.70;74.40;;;;;;5031937;28;20928;-74
2022/08/21 10:49:39;;;;;;;5.70;2.87;;;27.80;74.30;;;;;;5037674;28;21122;-74
2022/08/21 10:52:27;;;;;;;6.50;2.90;;;27.20;75.30;;;;;;5032994;28;20462;-75
2022/08/21 10:55:01;;;;;;;5.83;2.90;;;27.00;75.80;;;;;;5036662;28;21071;-74
2022/08/21 10:57:34;;;;;;;7.90;2.70;;;27.00;75.00;;;;;;5029225;28;20932;-74
2022/08/21 11:00:07;;;;;;;5.57;2.67;;;27.20;76.40;;;;;;5054510;28;20462;-73
2022/08/21 11:02:43;;;;;;;11.60;3.00;;;27.20;75.90;;;;;;5056337;28;20495;-73
2022/08/21 11:05:18;;;;;;;5.40;2.77;;;26.90;76.40;;;;;;5036890;28;20449;-73
2022/08/21 11:07:49;;;;;;;6.53;2.77;;;26.70;76.80;;;;;;5046700;28;20451;-75
2022/08/21 11:10:21;;;;;;;5.10;2.63;;;26.60;77.10;;;;;;5053240;28;20504;-74
2022/08/21 11:12:54;;;;;;;4.87;1.97;;;26.90;76.50;;;;;;5046436;28;20438;-73
2022/08/21 11:15:42;;;;;;;4.20;2.10;;;26.90;75.70;;;;;;5057030;28;20446;-73
2022/08/21 11:18:23;;;;;;;3.60;2.20;;;27.10;75.70;;;;;;5061236;28;20445;-75
2022/08/21 11:21:00;;;;;;;7.43;3.43;;;27.10;75.90;;;;;;5052952;28;20490;-73
2022/08/21 11:23:34;;;;;;;6.30;2.13;;;27.20;75.80;;;;;;5068531;28;20458;-72
2022/08/21 11:26:05;;;;;;;6.83;2.43;;;27.00;75.40;;;;;;5052957;28;20510;-74
2022/08/21 11:28:36;;;;;;;3.10;1.60;;;27.40;75.90;;;;;;5062534;28;20465;-73
2022/08/21 11:31:16;;;;;;;5.13;2.53;;;27.40;74.80;;;;;;5062575;28;20947;-74
2022/08/21 11:33:56;;;;;;;3.30;2.03;;;27.30;75.40;;;;;;5041578;28;20470;-74
2022/08/21 11:36:30;;;;;;;4.93;2.20;;;27.50;74.90;;;;;;5063011;28;20457;-72
2022/08/21 11:39:06;;;;;;;6.07;2.40;;;27.70;74.90;;;;;;5060681;28;20434;-73
2022/08/21 11:41:38;;;;;;;4.50;2.43;;;27.90;74.50;;;;;;5037799;28;20522;-73
2022/08/21 11:44:14;;;;;;;5.57;2.20;;;27.70;73.40;;;;;;5049421;28;21064;-74
2022/08/21 11:46:48;;;;;;;5.53;2.30;;;27.90;74.00;;;;;;5053406;28;20508;-75
2022/08/21 11:49:40;;;;;;;6.20;2.27;;;28.20;72.30;;;;;;5049509;28;20435;-74
2022/08/21 11:52:14;;;;;;;6.67;2.10;;;28.10;72.10;;;;;;5049927;28;20489;-73
2022/08/21 11:54:45;;;;;;;4.77;2.00;;;28.00;72.80;;;;;;5053188;28;20499;-74
2022/08/21 11:57:18;;;;;;;4.50;2.33;;;28.00;73.90;;;;;;5061322;28;20543;-73
2022/08/21 11:59:52;;;;;;;5.60;2.10;;;28.10;73.20;;;;;;5050756;28;20446;-75
2022/08/21 12:02:24;;;;;;;3.30;2.53;;;27.90;72.20;;;;;;5036533;28;20935;-73
2022/08/21 12:04:56;;;;;;;7.53;2.77;;;27.80;73.20;;;;;;5054599;28;20566;-73
2022/08/21 12:07:35;;;;;;;9.90;1.97;;;27.50;74.10;;;;;;5055016;28;20996;-72
2022/08/21 12:10:04;;;;;;;7.63;2.80;;;27.30;74.30;;;;;;5047974;28;20802;-74
2022/08/21 12:12:33;;;;;;;4.37;2.07;;;27.20;74.90;;;;;;5051704;28;20515;-74
2022/08/21 12:15:17;;;;;;;3.10;1.53;;;27.40;73.80;;;;;;5051703;28;20900;-73
2022/08/21 12:17:55;;;;;;;4.07;1.83;;;27.60;72.60;;;;;;5052925;28;20986;-73
2022/08/21 12:20:39;;;;;;;3.20;1.90;;;27.60;72.00;;;;;;5032141;28;20431;-73
2022/08/21 12:23:18;;;;;;;3.77;1.87;;;27.50;71.20;;;;;;5031663;28;20466;-73
2022/08/21 12:25:48;;;;;;;5.20;2.03;;;27.40;72.20;;;;;;5027209;28;20523;-74
2022/08/21 12:28:22;;;;;;;4.50;2.50;;;27.20;72.50;;;;;;5056837;28;20437;-74
2022/08/21 12:30:50;;;;;;;8.00;2.27;;;27.00;73.30;;;;;;5045456;28;20855;-73
2022/08/21 12:33:25;;;;;;;3.73;1.77;;;27.30;73.80;;;;;;5042959;28;20463;-74
2022/08/21 12:36:02;;;;;;;6.13;2.03;;;27.30;73.60;;;;;;5048221;28;20924;-74
2022/08/21 12:38:36;;;;;;;3.67;1.90;;;27.20;73.30;;;;;;5054131;28;20459;-74
2022/08/21 12:41:06;;;;;;;5.03;1.80;;;27.10;73.70;;;;;;5048266;28;20790;-73
2022/08/21 12:43:38;;;;;;;4.67;2.10;;;27.00;73.60;;;;;;5053287;28;20604;-74
2022/08/21 12:46:05;;;;;;;4.90;2.60;;;27.00;73.80;;;;;;5049434;28;20443;-74
2022/08/21 12:48:39;;;;;;;4.07;2.03;;;27.00;73.90;;;;;;5044158;28;20852;-74
2022/08/21 12:51:12;;;;;;;5.40;2.30;;;27.00;74.50;;;;;;5048633;28;21098;-74
2022/08/21 12:53:47;;;;;;;4.47;2.10;;;26.70;74.10;;;;;;5046632;28;20545;-75
2022/08/21 12:56:17;;;;;;;6.43;2.10;;;26.40;74.90;;;;;;5050904;28;20499;-75
2022/08/21 12:58:48;;;;;;;3.63;1.80;;;26.80;75.70;;;;;;5048201;28;20481;-75
2022/08/21 13:01:22;;;;;;;3.50;1.70;;;27.10;74.60;;;;;;5052117;28;20819;-74